sensor_id;sensor_type;location;lat;lon;timestamp;temperature;humidity
52058;DHT22;38063;53.210;6.504;2024-03-23T00:55:43;5.40;99.90
52058;DHT22;38063;53.210;6.504;2024-03-23T00:58:09;5.30;99.90
52058;DHT22;38063;53.210;6.504;2024-03-23T01:00:35;5.30;99.90
52058;DHT22;38063;53.210;6.504;2024-03-23T01:03:01;5.30;99.90
52058;DHT22;38063;53.210;6.504;2024-03-23T01:05:26;5.30;99.90
52058;DHT22;38063;53.210;6.504;2024-03-23T01:07:52;5.20;99.90
52058;DHT22;38063;53.210;6.504;2024-03-23T01:10:18;5.20;99.90
52058;DHT22;38063;53.210;6.504;2024-03-23T01:12:43;5.10;99.90
52058;DHT22;38063;53.210;6.504;2024-03-23T01:15:09;5.20;99.90
52058;DHT22;38063;53.210;6.504;2024-03-23T01:17:35;5.10;99.90
52058;DHT22;38063;53.210;6.504;2024-03-23T01:20:00;5.10;99.90
52058;DHT22;38063;53.210;6.504;2024-03-23T01:22:26;5.00;99.90
52058;DHT22;38063;53.210;6.504;2024-03-23T01:24:52;5.00;99.90
52058;DHT22;38063;53.210;6.504;2024-03-23T01:27:17;5.00;99.90
52058;DHT22;38063;53.210;6.504;2024-03-23T01:29:43;4.90;99.90
52058;DHT22;38063;53.210;6.504;2024-03-23T01:32:09;4.90;99.90
52058;DHT22;38063;53.210;6.504;2024-03-23T01:34:35;4.90;99.90
52058;DHT22;38063;53.210;6.504;2024-03-23T01:37:01;4.80;99.90
52058;DHT22;38063;53.210;6.504;2024-03-23T01:39:26;4.80;99.90
52058;DHT22;38063;53.210;6.504;2024-03-23T01:41:52;4.80;99.90
52058;DHT22;38063;53.210;6.504;2024-03-23T01:44:18;4.70;99.90
52058;DHT22;38063;53.210;6.504;2024-03-23T01:46:44;4.70;99.90
52058;DHT22;38063;53.210;6.504;2024-03-23T01:49:10;4.70;99.90
52058;DHT22;38063;53.210;6.504;2024-03-23T01:51:37;4.70;99.90
52058;DHT22;38063;53.210;6.504;2024-03-23T01:54:03;4.70;99.90
52058;DHT22;38063;53.210;6.504;2024-03-23T01:56:30;4.70;99.90
52058;DHT22;38063;53.210;6.504;2024-03-23T01:58:58;4.70;99.90
52058;DHT22;38063;53.210;6.504;2024-03-23T02:01:24;4.60;99.90
52058;DHT22;38063;53.210;6.504;2024-03-23T02:03:49;4.60;99.90
52058;DHT22;38063;53.210;6.504;2024-03-23T02:06:15;4.60;99.90
52058;DHT22;38063;53.210;6.504;2024-03-23T02:08:41;4.60;99.90
52058;DHT22;38063;53.210;6.504;2024-03-23T02:11:06;4.60;99.90
52058;DHT22;38063;53.210;6.504;2024-03-23T02:13:32;4.50;99.90
52058;DHT22;38063;53.210;6.504;2024-03-23T02:15:58;4.50;99.90
52058;DHT22;38063;53.210;6.504;2024-03-23T02:18:24;4.50;99.90
52058;DHT22;38063;53.210;6.504;2024-03-23T02:20:49;5.10;99.90
52058;DHT22;38063;53.210;6.504;2024-03-23T02:23:16;4.40;99.90
52058;DHT22;38063;53.210;6.504;2024-03-23T02:25:43;4.40;99.90
52058;DHT22;38063;53.210;6.504;2024-03-23T02:28:09;4.40;99.90
52058;DHT22;38063;53.210;6.504;2024-03-23T02:30:35;4.40;99.90
52058;DHT22;38063;53.210;6.504;2024-03-23T02:33:01;4.40;99.90
52058;DHT22;38063;53.210;6.504;2024-03-23T02:35:26;4.40;99.90
52058;DHT22;38063;53.210;6.504;2024-03-23T02:37:52;4.40;99.90
52058;DHT22;38063;53.210;6.504;2024-03-23T02:40:20;4.40;99.90
52058;DHT22;38063;53.210;6.504;2024-03-23T02:42:46;4.30;99.90
52058;DHT22;38063;53.210;6.504;2024-03-23T02:45:11;4.30;99.90
52058;DHT22;38063;53.210;6.504;2024-03-23T02:47:37;4.30;99.90
52058;DHT22;38063;53.210;6.504;2024-03-23T02:50:03;4.30;99.90
52058;DHT22;38063;53.210;6.504;2024-03-23T02:52:30;4.30;99.90
52058;DHT22;38063;53.210;6.504;2024-03-23T02:54:55;4.30;99.90
52058;DHT22;38063;53.210;6.504;2024-03-23T02:57:21;4.30;99.90
52058;DHT22;38063;53.210;6.504;2024-03-23T02:59:47;4.20;99.90
52058;DHT22;38063;53.210;6.504;2024-03-23T03:02:14;4.30;99.90
52058;DHT22;38063;53.210;6.504;2024-03-23T03:04:40;4.20;99.90
52058;DHT22;38063;53.210;6.504;2024-03-23T03:07:06;4.40;99.90
52058;DHT22;38063;53.210;6.504;2024-03-23T03:09:31;4.20;99.90
52058;DHT22;38063;53.210;6.504;2024-03-23T03:11:58;4.20;99.90
52058;DHT22;38063;53.210;6.504;2024-03-23T03:14:24;4.20;99.90
52058;DHT22;38063;53.210;6.504;2024-03-23T03:16:49;4.20;99.90
52058;DHT22;38063;53.210;6.504;2024-03-23T03:19:15;4.20;99.90
52058;DHT22;38063;53.210;6.504;2024-03-23T03:21:42;4.60;99.90
52058;DHT22;38063;53.210;6.504;2024-03-23T03:24:08;4.20;99.90
52058;DHT22;38063;53.210;6.504;2024-03-23T03:26:33;4.20;99.90
52058;DHT22;38063;53.210;6.504;2024-03-23T03:29:00;4.20;99.90
52058;DHT22;38063;53.210;6.504;2024-03-23T03:31:26;4.20;99.90
52058;DHT22;38063;53.210;6.504;2024-03-23T03:33:51;4.20;99.90
52058;DHT22;38063;53.210;6.504;2024-03-23T03:36:17;4.20;99.90
52058;DHT22;38063;53.210;6.504;2024-03-23T03:38:43;4.20;99.90
52058;DHT22;38063;53.210;6.504;2024-03-23T03:41:08;4.20;99.90
52058;DHT22;38063;53.210;6.504;2024-03-23T03:43:34;4.10;99.90
52058;DHT22;38063;53.210;6.504;2024-03-23T03:46:00;4.10;99.90
52058;DHT22;38063;53.210;6.504;2024-03-23T03:48:27;4.10;99.90
52058;DHT22;38063;53.210;6.504;2024-03-23T03:50:53;4.10;99.90
52058;DHT22;38063;53.210;6.504;2024-03-23T03:53:19;4.00;99.90
52058;DHT22;38063;53.210;6.504;2024-03-23T03:55:45;4.00;99.90
52058;DHT22;38063;53.210;6.504;2024-03-23T03:58:11;4.00;99.90
52058;DHT22;38063;53.210;6.504;2024-03-23T04:00:36;4.00;99.90
52058;DHT22;38063;53.210;6.504;2024-03-23T04:03:02;3.90;99.90
52058;DHT22;38063;53.210;6.504;2024-03-23T04:05:28;3.90;99.90
52058;DHT22;38063;53.210;6.504;2024-03-23T04:07:53;3.80;99.90
52058;DHT22;38063;53.210;6.504;2024-03-23T04:10:20;3.80;99.90
52058;DHT22;38063;53.210;6.504;2024-03-23T04:12:46;3.80;99.90
52058;DHT22;38063;53.210;6.504;2024-03-23T04:15:12;3.70;99.90
52058;DHT22;38063;53.210;6.504;2024-03-23T04:17:37;3.70;99.90
52058;DHT22;38063;53.210;6.504;2024-03-23T04:20:03;3.70;99.90
52058;DHT22;38063;53.210;6.504;2024-03-23T04:22:34;3.70;99.90
52058;DHT22;38063;53.210;6.504;2024-03-23T04:25:00;3.70;99.90
52058;DHT22;38063;53.210;6.504;2024-03-23T04:27:28;3.60;99.90
52058;DHT22;38063;53.210;6.504;2024-03-23T04:29:54;3.60;99.90
52058;DHT22;38063;53.210;6.504;2024-03-23T04:32:20;3.60;99.90
52058;DHT22;38063;53.210;6.504;2024-03-23T04:34:45;3.60;99.90
52058;DHT22;38063;53.210;6.504;2024-03-23T04:37:11;3.60;99.90
52058;DHT22;38063;53.210;6.504;2024-03-23T04:39:37;3.60;99.90
52058;DHT22;38063;53.210;6.504;2024-03-23T04:42:03;3.60;99.90
52058;DHT22;38063;53.210;6.504;2024-03-23T04:44:29;3.50;99.90
52058;DHT22;38063;53.210;6.504;2024-03-23T04:46:59;3.50;99.90
52058;DHT22;38063;53.210;6.504;2024-03-23T04:49:26;3.50;99.90
52058;DHT22;38063;53.210;6.504;2024-03-23T04:51:51;3.50;99.90
52058;DHT22;38063;53.210;6.504;2024-03-23T04:54:17;3.60;99.90
52058;DHT22;38063;53.210;6.504;2024-03-23T04:56:43;3.50;99.90
52058;DHT22;38063;53.210;6.504;2024-03-23T04:59:08;3.50;99.90
52058;DHT22;38063;53.210;6.504;2024-03-23T05:01:34;3.50;99.90
52058;DHT22;38063;53.210;6.504;2024-03-23T05:04:01;3.50;99.90
52058;DHT22;38063;53.210;6.504;2024-03-23T05:06:27;3.50;99.90
52058;DHT22;38063;53.210;6.504;2024-03-23T05:08:52;3.50;99.90
52058;DHT22;38063;53.210;6.504;2024-03-23T05:11:18;3.40;99.90
52058;DHT22;38063;53.210;6.504;2024-03-23T05:13:45;3.40;99.90
52058;DHT22;38063;53.210;6.504;2024-03-23T05:16:11;3.40;99.90
52058;DHT22;38063;53.210;6.504;2024-03-23T05:18:36;3.40;99.90
52058;DHT22;38063;53.210;6.504;2024-03-23T05:21:02;3.40;99.90
52058;DHT22;38063;53.210;6.504;2024-03-23T05:23:28;3.40;99.90
52058;DHT22;38063;53.210;6.504;2024-03-23T05:25:54;3.40;99.90
52058;DHT22;38063;53.210;6.504;2024-03-23T05:28:21;3.40;99.90
52058;DHT22;38063;53.210;6.504;2024-03-23T05:30:54;3.40;99.90
52058;DHT22;38063;53.210;6.504;2024-03-23T05:33:20;3.50;99.90
52058;DHT22;38063;53.210;6.504;2024-03-23T05:35:46;3.40;99.90
52058;DHT22;38063;53.210;6.504;2024-03-23T05:38:13;3.50;99.90
52058;DHT22;38063;53.210;6.504;2024-03-23T05:40:39;3.50;99.90
52058;DHT22;38063;53.210;6.504;2024-03-23T05:43:08;3.60;99.90
52058;DHT22;38063;53.210;6.504;2024-03-23T05:45:34;3.60;99.90
52058;DHT22;38063;53.210;6.504;2024-03-23T05:48:00;3.70;99.90
52058;DHT22;38063;53.210;6.504;2024-03-23T05:50:26;5.10;99.90
52058;DHT22;38063;53.210;6.504;2024-03-23T05:52:52;3.70;99.90
52058;DHT22;38063;53.210;6.504;2024-03-23T05:55:17;3.70;99.90
52058;DHT22;38063;53.210;6.504;2024-03-23T05:57:43;3.80;99.90
52058;DHT22;38063;53.210;6.504;2024-03-23T06:00:09;3.80;99.90
52058;DHT22;38063;53.210;6.504;2024-03-23T06:02:42;4.00;99.90
52058;DHT22;38063;53.210;6.504;2024-03-23T06:05:11;4.10;99.90
52058;DHT22;38063;53.210;6.504;2024-03-23T06:07:37;4.20;99.90
52058;DHT22;38063;53.210;6.504;2024-03-23T06:10:04;4.20;99.90
52058;DHT22;38063;53.210;6.504;2024-03-23T06:12:31;4.30;99.90
52058;DHT22;38063;53.210;6.504;2024-03-23T06:14:57;4.40;99.90
52058;DHT22;38063;53.210;6.504;2024-03-23T06:17:23;4.40;99.90
52058;DHT22;38063;53.210;6.504;2024-03-23T06:19:48;4.40;99.90
52058;DHT22;38063;53.210;6.504;2024-03-23T06:22:15;4.40;99.90
52058;DHT22;38063;53.210;6.504;2024-03-23T06:24:40;5.10;99.90
52058;DHT22;38063;53.210;6.504;2024-03-23T06:27:06;5.10;99.90
52058;DHT22;38063;53.210;6.504;2024-03-23T06:29:32;4.40;99.90
52058;DHT22;38063;53.210;6.504;2024-03-23T06:31:57;4.50;99.90
52058;DHT22;38063;53.210;6.504;2024-03-23T06:34:23;4.50;99.90
52058;DHT22;38063;53.210;6.504;2024-03-23T06:36:49;4.50;99.90
52058;DHT22;38063;53.210;6.504;2024-03-23T06:39:16;4.60;99.90
52058;DHT22;38063;53.210;6.504;2024-03-23T06:41:51;4.60;99.90
52058;DHT22;38063;53.210;6.504;2024-03-23T06:44:18;4.60;99.90
52058;DHT22;38063;53.210;6.504;2024-03-23T06:46:44;4.60;99.90
52058;DHT22;38063;53.210;6.504;2024-03-23T06:49:10;4.60;99.90
52058;DHT22;38063;53.210;6.504;2024-03-23T06:51:36;4.60;99.90
52058;DHT22;38063;53.210;6.504;2024-03-23T06:54:03;4.70;99.90
52058;DHT22;38063;53.210;6.504;2024-03-23T06:56:30;4.80;99.90
52058;DHT22;38063;53.210;6.504;2024-03-23T06:58:56;4.80;99.90
52058;DHT22;38063;53.210;6.504;2024-03-23T07:01:22;5.40;99.90
52058;DHT22;38063;53.210;6.504;2024-03-23T07:03:48;4.90;99.90
52058;DHT22;38063;53.210;6.504;2024-03-23T07:06:14;4.90;99.90
52058;DHT22;38063;53.210;6.504;2024-03-23T07:08:39;4.90;99.90
52058;DHT22;38063;53.210;6.504;2024-03-23T07:11:05;4.90;99.90
52058;DHT22;38063;53.210;6.504;2024-03-23T07:13:31;5.00;99.90
52058;DHT22;38063;53.210;6.504;2024-03-23T07:15:57;5.30;99.90
52058;DHT22;38063;53.210;6.504;2024-03-23T07:18:23;5.10;99.90
52058;DHT22;38063;53.210;6.504;2024-03-23T07:20:56;5.10;99.90
52058;DHT22;38063;53.210;6.504;2024-03-23T07:23:22;5.10;99.90
52058;DHT22;38063;53.210;6.504;2024-03-23T07:26:02;5.10;99.90
52058;DHT22;38063;53.210;6.504;2024-03-23T07:28:28;5.10;99.90
52058;DHT22;38063;53.210;6.504;2024-03-23T07:31:06;5.10;99.90
52058;DHT22;38063;53.210;6.504;2024-03-23T07:33:36;5.40;99.90
52058;DHT22;38063;53.210;6.504;2024-03-23T07:36:02;5.10;99.90
52058;DHT22;38063;53.210;6.504;2024-03-23T07:38:29;5.10;99.90
52058;DHT22;38063;53.210;6.504;2024-03-23T07:41:12;5.10;99.90
52058;DHT22;38063;53.210;6.504;2024-03-23T07:43:38;5.20;99.90
52058;DHT22;38063;53.210;6.504;2024-03-23T07:46:04;5.10;99.90
52058;DHT22;38063;53.210;6.504;2024-03-23T07:48:31;5.20;99.90
52058;DHT22;38063;53.210;6.504;2024-03-23T07:53:25;5.30;99.90
52058;DHT22;38063;53.210;6.504;2024-03-23T07:55:57;5.40;99.90
52058;DHT22;38063;53.210;6.504;2024-03-23T07:58:23;5.40;99.90
52058;DHT22;38063;53.210;6.504;2024-03-23T08:00:49;5.60;99.90
52058;DHT22;38063;53.210;6.504;2024-03-23T08:03:15;5.70;99.90
52058;DHT22;38063;53.210;6.504;2024-03-23T08:05:40;5.90;99.90
52058;DHT22;38063;53.210;6.504;2024-03-23T08:08:06;6.10;99.90
52058;DHT22;38063;53.210;6.504;2024-03-23T08:10:32;6.20;99.90
52058;DHT22;38063;53.210;6.504;2024-03-23T08:12:57;6.10;99.90
52058;DHT22;38063;53.210;6.504;2024-03-23T08:15:23;6.00;99.90
52058;DHT22;38063;53.210;6.504;2024-03-23T08:17:49;5.90;99.90
52058;DHT22;38063;53.210;6.504;2024-03-23T08:20:15;5.80;99.90
52058;DHT22;38063;53.210;6.504;2024-03-23T08:22:41;5.70;99.90
52058;DHT22;38063;53.210;6.504;2024-03-23T08:25:06;5.80;99.90
52058;DHT22;38063;53.210;6.504;2024-03-23T08:27:32;5.80;99.90
52058;DHT22;38063;53.210;6.504;2024-03-23T08:29:58;5.80;99.90
52058;DHT22;38063;53.210;6.504;2024-03-23T08:32:24;5.90;99.90
52058;DHT22;38063;53.210;6.504;2024-03-23T08:34:49;5.90;99.90
52058;DHT22;38063;53.210;6.504;2024-03-23T08:37:15;6.00;99.90
52058;DHT22;38063;53.210;6.504;2024-03-23T08:39:43;6.20;99.90
52058;DHT22;38063;53.210;6.504;2024-03-23T08:42:08;6.40;99.90
52058;DHT22;38063;53.210;6.504;2024-03-23T08:44:34;6.50;99.90
52058;DHT22;38063;53.210;6.504;2024-03-23T08:47:01;6.70;99.90
52058;DHT22;38063;53.210;6.504;2024-03-23T09:12:10;7.70;99.90
52058;DHT22;38063;53.210;6.504;2024-03-23T09:14:36;8.80;99.90
52058;DHT22;38063;53.210;6.504;2024-03-23T09:17:02;8.80;99.90
52058;DHT22;38063;53.210;6.504;2024-03-23T09:19:28;9.00;99.90
52058;DHT22;38063;53.210;6.504;2024-03-23T09:21:54;9.10;99.90
52058;DHT22;38063;53.210;6.504;2024-03-23T09:24:20;10.00;99.90
52058;DHT22;38063;53.210;6.504;2024-03-23T09:26:46;9.70;99.90
52058;DHT22;38063;53.210;6.504;2024-03-23T09:29:12;9.50;99.90
52058;DHT22;38063;53.210;6.504;2024-03-23T09:31:38;9.40;99.90
52058;DHT22;38063;53.210;6.504;2024-03-23T09:34:04;8.90;99.90
52058;DHT22;38063;53.210;6.504;2024-03-23T09:36:29;8.30;99.90
52058;DHT22;38063;53.210;6.504;2024-03-23T09:38:55;7.70;99.90
52058;DHT22;38063;53.210;6.504;2024-03-23T09:41:20;7.30;99.90
52058;DHT22;38063;53.210;6.504;2024-03-23T09:43:46;7.00;99.90
52058;DHT22;38063;53.210;6.504;2024-03-23T09:46:14;6.70;99.90
52058;DHT22;38063;53.210;6.504;2024-03-23T09:48:41;6.60;99.90
52058;DHT22;38063;53.210;6.504;2024-03-23T09:51:07;6.80;99.90
52058;DHT22;38063;53.210;6.504;2024-03-23T09:53:34;6.40;99.90
52058;DHT22;38063;53.210;6.504;2024-03-23T09:56:00;6.40;99.90
52058;DHT22;38063;53.210;6.504;2024-03-23T09:58:26;6.40;99.90
52058;DHT22;38063;53.210;6.504;2024-03-23T10:00:51;6.40;99.90
52058;DHT22;38063;53.210;6.504;2024-03-23T10:03:17;6.70;99.90
52058;DHT22;38063;53.210;6.504;2024-03-23T10:05:43;7.00;99.90
52058;DHT22;38063;53.210;6.504;2024-03-23T10:10:44;7.70;99.90
52058;DHT22;38063;53.210;6.504;2024-03-23T10:13:11;8.00;99.90
52058;DHT22;38063;53.210;6.504;2024-03-23T10:15:39;8.20;99.90
52058;DHT22;38063;53.210;6.504;2024-03-23T10:18:25;8.50;99.90
52058;DHT22;38063;53.210;6.504;2024-03-23T10:20:52;8.70;99.90
52058;DHT22;38063;53.210;6.504;2024-03-23T10:23:19;9.60;99.90
52058;DHT22;38063;53.210;6.504;2024-03-23T10:25:44;9.10;99.90
52058;DHT22;38063;53.210;6.504;2024-03-23T10:28:11;9.30;99.90
52058;DHT22;38063;53.210;6.504;2024-03-23T10:30:37;9.40;99.90
52058;DHT22;38063;53.210;6.504;2024-03-23T10:33:12;9.30;99.90
52058;DHT22;38063;53.210;6.504;2024-03-23T10:35:38;9.20;99.90
52058;DHT22;38063;53.210;6.504;2024-03-23T10:38:05;8.90;99.90
52058;DHT22;38063;53.210;6.504;2024-03-23T10:40:35;8.70;99.90
52058;DHT22;38063;53.210;6.504;2024-03-23T10:43:01;8.70;99.90
52058;DHT22;38063;53.210;6.504;2024-03-23T10:45:28;8.70;99.90
52058;DHT22;38063;53.210;6.504;2024-03-23T10:47:54;8.90;99.90
52058;DHT22;38063;53.210;6.504;2024-03-23T10:50:19;9.20;99.90
52058;DHT22;38063;53.210;6.504;2024-03-23T10:52:47;9.60;99.90
52058;DHT22;38063;53.210;6.504;2024-03-23T10:55:19;9.80;99.90
52058;DHT22;38063;53.210;6.504;2024-03-23T10:57:57;9.80;99.90
52058;DHT22;38063;53.210;6.504;2024-03-23T11:00:25;9.50;99.90
52058;DHT22;38063;53.210;6.504;2024-03-23T11:02:51;9.10;99.90
52058;DHT22;38063;53.210;6.504;2024-03-23T11:05:36;8.70;99.90
52058;DHT22;38063;53.210;6.504;2024-03-23T11:08:02;8.20;99.90
52058;DHT22;38063;53.210;6.504;2024-03-23T11:10:30;7.90;99.90
52058;DHT22;38063;53.210;6.504;2024-03-23T11:13:21;8.30;99.90
52058;DHT22;38063;53.210;6.504;2024-03-23T11:15:47;7.50;99.90
52058;DHT22;38063;53.210;6.504;2024-03-23T11:18:20;8.00;99.90
52058;DHT22;38063;53.210;6.504;2024-03-23T11:20:46;7.40;99.90
52058;DHT22;38063;53.210;6.504;2024-03-23T11:23:27;7.10;99.90
52058;DHT22;38063;53.210;6.504;2024-03-23T11:25:53;7.10;99.90
52058;DHT22;38063;53.210;6.504;2024-03-23T11:28:18;7.20;99.90
52058;DHT22;38063;53.210;6.504;2024-03-23T11:30:44;7.40;99.90
52058;DHT22;38063;53.210;6.504;2024-03-23T11:33:10;8.70;99.90
52058;DHT22;38063;53.210;6.504;2024-03-23T11:35:39;8.20;99.90
52058;DHT22;38063;53.210;6.504;2024-03-23T11:38:09;8.60;99.90
52058;DHT22;38063;53.210;6.504;2024-03-23T11:40:42;9.10;99.90
52058;DHT22;38063;53.210;6.504;2024-03-23T11:43:10;9.50;99.90
52058;DHT22;38063;53.210;6.504;2024-03-23T11:45:38;9.70;99.90
52058;DHT22;38063;53.210;6.504;2024-03-23T11:48:12;9.80;99.90
52058;DHT22;38063;53.210;6.504;2024-03-23T11:50:43;9.70;99.90
52058;DHT22;38063;53.210;6.504;2024-03-23T11:55:45;9.60;99.90
52058;DHT22;38063;53.210;6.504;2024-03-23T11:58:11;9.50;99.90
52058;DHT22;38063;53.210;6.504;2024-03-23T12:00:37;10.00;99.90
52058;DHT22;38063;53.210;6.504;2024-03-23T12:03:04;9.40;99.90
52058;DHT22;38063;53.210;6.504;2024-03-23T12:05:30;9.00;99.90
52058;DHT22;38063;53.210;6.504;2024-03-23T12:08:25;8.90;99.90
52058;DHT22;38063;53.210;6.504;2024-03-23T12:13:30;9.00;99.90
52058;DHT22;38063;53.210;6.504;2024-03-23T12:16:12;9.00;99.90
52058;DHT22;38063;53.210;6.504;2024-03-23T12:18:41;8.70;99.90
52058;DHT22;38063;53.210;6.504;2024-03-23T12:21:07;8.90;99.90
52058;DHT22;38063;53.210;6.504;2024-03-23T12:23:33;7.90;99.90
52058;DHT22;38063;53.210;6.504;2024-03-23T12:25:59;7.60;99.90
52058;DHT22;38063;53.210;6.504;2024-03-23T12:28:25;7.30;99.90
52058;DHT22;38063;53.210;6.504;2024-03-23T12:30:51;7.20;99.90
52058;DHT22;38063;53.210;6.504;2024-03-23T12:33:18;7.00;99.90
52058;DHT22;38063;53.210;6.504;2024-03-23T12:35:44;7.10;99.90
52058;DHT22;38063;53.210;6.504;2024-03-23T12:38:09;8.30;99.90
52058;DHT22;38063;53.210;6.504;2024-03-23T12:40:35;8.00;99.90
52058;DHT22;38063;53.210;6.504;2024-03-23T12:43:01;7.60;99.90
52058;DHT22;38063;53.210;6.504;2024-03-23T12:45:26;7.10;99.90
52058;DHT22;38063;53.210;6.504;2024-03-23T12:47:52;7.00;99.90
52058;DHT22;38063;53.210;6.504;2024-03-23T12:50:19;6.80;99.90
52058;DHT22;38063;53.210;6.504;2024-03-23T12:52:45;6.70;99.90
52058;DHT22;38063;53.210;6.504;2024-03-23T12:55:11;6.60;99.90
52058;DHT22;38063;53.210;6.504;2024-03-23T12:57:37;6.40;99.90
52058;DHT22;38063;53.210;6.504;2024-03-23T13:00:03;6.60;99.90
52058;DHT22;38063;53.210;6.504;2024-03-23T13:02:29;6.90;99.90
52058;DHT22;38063;53.210;6.504;2024-03-23T13:04:55;7.20;99.90
52058;DHT22;38063;53.210;6.504;2024-03-23T13:07:22;7.60;99.90
52058;DHT22;38063;53.210;6.504;2024-03-23T13:09:52;7.70;99.90
52058;DHT22;38063;53.210;6.504;2024-03-23T13:12:18;7.90;99.90
52058;DHT22;38063;53.210;6.504;2024-03-23T13:14:45;7.90;99.90
52058;DHT22;38063;53.210;6.504;2024-03-23T13:17:11;7.90;99.90
52058;DHT22;38063;53.210;6.504;2024-03-23T13:19:36;7.80;99.90
52058;DHT22;38063;53.210;6.504;2024-03-23T13:22:03;7.60;99.90
52058;DHT22;38063;53.210;6.504;2024-03-23T13:24:29;7.70;99.90
52058;DHT22;38063;53.210;6.504;2024-03-23T13:26:56;8.30;99.90
52058;DHT22;38063;53.210;6.504;2024-03-23T13:29:22;8.30;99.90
52058;DHT22;38063;53.210;6.504;2024-03-23T13:31:49;8.30;99.90
52058;DHT22;38063;53.210;6.504;2024-03-23T13:34:15;8.30;99.90
52058;DHT22;38063;53.210;6.504;2024-03-23T13:36:47;8.20;99.90
52058;DHT22;38063;53.210;6.504;2024-03-23T13:39:15;8.70;99.90
52058;DHT22;38063;53.210;6.504;2024-03-23T13:41:42;8.40;99.90
52058;DHT22;38063;53.210;6.504;2024-03-23T13:44:09;8.50;99.90
52058;DHT22;38063;53.210;6.504;2024-03-23T13:46:41;8.60;99.90
52058;DHT22;38063;53.210;6.504;2024-03-23T13:49:31;8.70;99.90
52058;DHT22;38063;53.210;6.504;2024-03-23T13:52:00;8.80;99.90
52058;DHT22;38063;53.210;6.504;2024-03-23T13:54:26;8.80;99.90
52058;DHT22;38063;53.210;6.504;2024-03-23T13:56:53;8.80;99.90
52058;DHT22;38063;53.210;6.504;2024-03-23T13:59:19;8.90;99.90
52058;DHT22;38063;53.210;6.504;2024-03-23T14:01:46;8.80;99.90
52058;DHT22;38063;53.210;6.504;2024-03-23T14:04:13;8.50;99.90
52058;DHT22;38063;53.210;6.504;2024-03-23T14:06:39;8.30;99.90
52058;DHT22;38063;53.210;6.504;2024-03-23T14:09:05;8.20;99.90
52058;DHT22;38063;53.210;6.504;2024-03-23T14:11:34;8.20;99.90
52058;DHT22;38063;53.210;6.504;2024-03-23T14:14:00;8.20;99.90
52058;DHT22;38063;53.210;6.504;2024-03-23T14:16:26;8.30;99.90
52058;DHT22;38063;53.210;6.504;2024-03-23T14:18:51;8.40;99.90
52058;DHT22;38063;53.210;6.504;2024-03-23T14:21:17;8.40;99.90
52058;DHT22;38063;53.210;6.504;2024-03-23T14:23:43;8.40;99.90
52058;DHT22;38063;53.210;6.504;2024-03-23T14:26:08;8.50;99.90
52058;DHT22;38063;53.210;6.504;2024-03-23T14:28:34;8.60;99.90
52058;DHT22;38063;53.210;6.504;2024-03-23T14:31:00;8.70;99.90
52058;DHT22;38063;53.210;6.504;2024-03-23T14:33:26;8.80;99.90
52058;DHT22;38063;53.210;6.504;2024-03-23T14:35:53;8.80;99.90
52058;DHT22;38063;53.210;6.504;2024-03-23T14:38:21;8.90;99.90
52058;DHT22;38063;53.210;6.504;2024-03-23T14:40:47;8.90;99.90
52058;DHT22;38063;53.210;6.504;2024-03-23T14:43:13;8.90;99.90
52058;DHT22;38063;53.210;6.504;2024-03-23T14:46:10;8.90;99.90
52058;DHT22;38063;53.210;6.504;2024-03-23T14:48:36;8.80;99.90
52058;DHT22;38063;53.210;6.504;2024-03-23T14:51:02;8.80;99.90
52058;DHT22;38063;53.210;6.504;2024-03-23T14:53:34;8.90;99.90
52058;DHT22;38063;53.210;6.504;2024-03-23T14:56:01;8.80;99.90
52058;DHT22;38063;53.210;6.504;2024-03-23T14:58:28;8.70;99.90
52058;DHT22;38063;53.210;6.504;2024-03-23T15:01:00;8.50;99.90
52058;DHT22;38063;53.210;6.504;2024-03-23T15:03:26;8.50;99.90
52058;DHT22;38063;53.210;6.504;2024-03-23T15:05:53;8.30;99.90
52058;DHT22;38063;53.210;6.504;2024-03-23T15:08:19;8.30;99.90
52058;DHT22;38063;53.210;6.504;2024-03-23T15:10:45;8.40;99.90
52058;DHT22;38063;53.210;6.504;2024-03-23T15:13:10;8.40;99.90
52058;DHT22;38063;53.210;6.504;2024-03-23T15:15:40;8.50;99.90
52058;DHT22;38063;53.210;6.504;2024-03-23T15:18:08;8.40;99.90
52058;DHT22;38063;53.210;6.504;2024-03-23T15:20:33;8.50;99.90
52058;DHT22;38063;53.210;6.504;2024-03-23T15:23:04;8.50;99.90
52058;DHT22;38063;53.210;6.504;2024-03-23T15:25:30;8.50;99.90
52058;DHT22;38063;53.210;6.504;2024-03-23T15:27:56;8.50;99.90
52058;DHT22;38063;53.210;6.504;2024-03-23T15:30:23;8.60;99.90
52058;DHT22;38063;53.210;6.504;2024-03-23T15:32:48;8.60;99.90
52058;DHT22;38063;53.210;6.504;2024-03-23T15:35:14;8.60;99.90
52058;DHT22;38063;53.210;6.504;2024-03-23T15:37:40;8.60;99.90
52058;DHT22;38063;53.210;6.504;2024-03-23T15:40:07;8.50;99.90
52058;DHT22;38063;53.210;6.504;2024-03-23T15:42:32;8.40;99.90
52058;DHT22;38063;53.210;6.504;2024-03-23T15:44:58;8.80;99.90
52058;DHT22;38063;53.210;6.504;2024-03-23T15:47:24;8.30;99.90
52058;DHT22;38063;53.210;6.504;2024-03-23T15:49:50;8.20;99.90
52058;DHT22;38063;53.210;6.504;2024-03-23T15:52:19;8.20;99.90
52058;DHT22;38063;53.210;6.504;2024-03-23T15:54:44;8.30;99.90
52058;DHT22;38063;53.210;6.504;2024-03-23T15:57:10;8.30;99.90
52058;DHT22;38063;53.210;6.504;2024-03-23T15:59:35;8.30;99.90
52058;DHT22;38063;53.210;6.504;2024-03-23T16:02:01;8.10;99.90
52058;DHT22;38063;53.210;6.504;2024-03-23T16:04:28;8.00;99.90
52058;DHT22;38063;53.210;6.504;2024-03-23T16:06:53;7.90;99.90
52058;DHT22;38063;53.210;6.504;2024-03-23T16:09:19;7.70;99.90
52058;DHT22;38063;53.210;6.504;2024-03-23T16:11:45;7.70;99.90
52058;DHT22;38063;53.210;6.504;2024-03-23T16:14:10;7.60;99.90
52058;DHT22;38063;53.210;6.504;2024-03-23T16:16:36;7.60;99.90
52058;DHT22;38063;53.210;6.504;2024-03-23T16:19:01;7.60;99.90
52058;DHT22;38063;53.210;6.504;2024-03-23T16:21:27;7.60;99.90
52058;DHT22;38063;53.210;6.504;2024-03-23T16:23:53;7.50;99.90
52058;DHT22;38063;53.210;6.504;2024-03-23T16:26:18;7.60;99.90
52058;DHT22;38063;53.210;6.504;2024-03-23T16:28:44;7.70;99.90
52058;DHT22;38063;53.210;6.504;2024-03-23T16:31:11;7.70;99.90
52058;DHT22;38063;53.210;6.504;2024-03-23T16:33:37;7.70;99.90
52058;DHT22;38063;53.210;6.504;2024-03-23T16:36:05;7.70;99.90
52058;DHT22;38063;53.210;6.504;2024-03-23T16:38:31;7.70;99.90
52058;DHT22;38063;53.210;6.504;2024-03-23T16:41:08;7.80;99.90
52058;DHT22;38063;53.210;6.504;2024-03-23T16:43:35;7.70;99.90
52058;DHT22;38063;53.210;6.504;2024-03-23T16:46:09;7.60;99.90
52058;DHT22;38063;53.210;6.504;2024-03-23T16:48:40;7.50;99.90
52058;DHT22;38063;53.210;6.504;2024-03-23T16:51:06;7.30;99.90
52058;DHT22;38063;53.210;6.504;2024-03-23T16:53:33;7.30;99.90
52058;DHT22;38063;53.210;6.504;2024-03-23T16:56:03;7.20;99.90
52058;DHT22;38063;53.210;6.504;2024-03-23T16:58:30;7.20;99.90
52058;DHT22;38063;53.210;6.504;2024-03-23T17:00:58;7.10;99.90
52058;DHT22;38063;53.210;6.504;2024-03-23T17:03:27;7.10;99.90
52058;DHT22;38063;53.210;6.504;2024-03-23T17:05:53;7.10;99.90
52058;DHT22;38063;53.210;6.504;2024-03-23T17:08:19;7.00;99.90
52058;DHT22;38063;53.210;6.504;2024-03-23T17:10:45;7.00;99.90